Time;durP1;ratioP1;P1;durP2;ratioP2;P2;SDS_P1;SDS_P2;PMS_P1;PMS_P2;Temp;Humidity;BMP_temperature;BMP_pressure;BME280_temperature;BME280_humidity;BME280_pressure;Samples;Min_cycle;Max_cycle;Signal;HPM_P1;HPM_P2
2024/01/16 00:01:21;;;;;;;20.13;7.55;;;;;;;-0.93;68.37;91752.53;2047715;70;20138;-79
2024/01/16 00:03:46;;;;;;;15.10;7.05;;;;;;;-1.00;68.58;91734.69;2048213;70;20464;-76
2024/01/16 00:06:12;;;;;;;16.52;6.20;;;;;;;-0.99;68.73;91743.72;2047643;70;20166;-83
2024/01/16 00:08:38;;;;;;;13.95;6.68;;;;;;;-1.10;68.33;91720.00;2048013;70;20618;-86
2024/01/16 00:11:03;;;;;;;16.65;7.15;;;;;;;-1.02;68.31;91738.00;2047901;70;20250;-86
2024/01/16 00:13:30;;;;;;;14.32;6.55;;;;;;;-1.04;68.21;91745.41;2048068;70;20142;-75
2024/01/16 00:15:59;;;;;;;18.25;6.43;;;;;;;-1.07;68.23;91740.97;2047792;70;20166;-78
2024/01/16 00:18:24;;;;;;;12.95;5.85;;;;;;;-1.02;68.37;91745.56;2047687;70;20181;-83
2024/01/16 00:20:50;;;;;;;13.00;5.68;;;;;;;-1.12;68.17;91737.13;2047785;70;20150;-78
2024/01/16 00:23:16;;;;;;;10.82;5.93;;;;;;;-1.28;68.76;91738.50;2048010;70;20154;-80
2024/01/16 00:25:41;;;;;;;13.00;6.20;;;;;;;-1.28;68.53;91752.31;2048106;70;20162;-77
2024/01/16 00:28:07;;;;;;;12.13;5.78;;;;;;;-1.40;68.20;91746.44;2048109;70;20546;-80
2024/01/16 00:30:43;;;;;;;11.43;5.55;;;;;;;-1.36;68.07;91749.56;2047509;70;20150;-77
2024/01/16 00:33:10;;;;;;;12.60;5.45;;;;;;;-1.36;68.57;91744.03;2047354;70;20143;-76
2024/01/16 00:35:35;;;;;;;10.40;5.07;;;;;;;-1.34;69.01;91744.19;2047346;70;20138;-75
2024/01/16 00:38:01;;;;;;;8.85;4.68;;;;;;;-1.31;68.96;91753.41;2044313;70;20171;-78
2024/01/16 00:40:28;;;;;;;8.48;4.75;;;;;;;-1.40;68.42;91754.72;2046887;70;20150;-84
2024/01/16 00:42:53;;;;;;;8.13;4.30;;;;;;;-1.92;68.59;91688.06;2047758;70;20289;-76
2024/01/16 00:45:19;;;;;;;7.88;4.20;;;;;;;-1.49;68.39;91755.31;2048153;70;20157;-86
2024/01/16 00:47:45;;;;;;;8.85;4.05;;;;;;;-1.73;68.94;91761.44;2047998;70;20651;-78
2024/01/16 00:50:11;;;;;;;8.35;3.90;;;;;;;-1.75;70.31;91761.97;2047409;70;20143;-79
2024/01/16 00:52:36;;;;;;;9.73;5.00;;;;;;;-1.77;69.72;91772.84;2048238;70;20246;-81
2024/01/16 00:55:02;;;;;;;8.70;4.05;;;;;;;-1.64;69.59;91780.19;2047506;70;20171;-85
2024/01/16 00:57:28;;;;;;;7.95;4.50;;;;;;;-1.60;69.06;91783.31;2048448;70;20154;-86
2024/01/16 00:59:53;;;;;;;7.78;3.75;;;;;;;-1.64;69.46;91782.94;2047944;70;20151;-83
2024/01/16 01:02:19;;;;;;;7.47;3.63;;;;;;;-1.65;69.30;91775.94;2044709;70;20710;-78
2024/01/16 01:04:45;;;;;;;5.88;4.07;;;;;;;-1.59;69.28;91776.50;2047965;70;20174;-80
2024/01/16 01:07:14;;;;;;;10.18;4.32;;;;;;;-1.47;68.89;91785.09;2047708;70;20599;-82
2024/01/16 01:09:40;;;;;;;9.32;3.75;;;;;;;-1.61;68.41;91787.34;2048077;70;20151;-84
2024/01/16 01:12:06;;;;;;;7.00;3.65;;;;;;;-1.60;69.10;91781.28;2047596;70;20198;-76
2024/01/16 01:14:32;;;;;;;8.32;3.83;;;;;;;-1.67;69.55;91790.28;2047748;70;20146;-86
2024/01/16 01:16:58;;;;;;;8.27;3.50;;;;;;;-2.17;71.31;91806.47;2047473;70;20221;-83
2024/01/16 01:19:23;;;;;;;6.78;3.40;;;;;;;-1.86;70.26;91800.97;2048103;70;20169;-78
2024/01/16 01:21:49;;;;;;;6.60;3.50;;;;;;;-1.70;69.57;91807.22;2047908;70;20154;-80
2024/01/16 01:24:15;;;;;;;9.60;3.60;;;;;;;-1.69;69.39;91805.94;2047744;70;20276;-75
2024/01/16 01:26:44;;;;;;;7.30;3.95;;;;;;;-1.68;69.49;91801.88;2051492;70;20149;-78
2024/01/16 01:29:10;;;;;;;7.40;3.60;;;;;;;-1.71;69.64;91805.75;2049726;70;20167;-75
2024/01/16 01:31:35;;;;;;;7.35;3.70;;;;;;;-2.25;71.40;91808.50;2049961;70;20304;-82
2024/01/16 01:34:01;;;;;;;7.05;3.63;;;;;;;-1.86;70.54;91798.22;2047969;70;20174;-83
2024/01/16 01:36:28;;;;;;;7.22;3.30;;;;;;;-1.83;70.45;91810.91;2047522;70;20150;-81
2024/01/16 01:38:53;;;;;;;6.65;3.70;;;;;;;-1.87;69.50;91805.75;2047726;70;20205;-81
2024/01/16 01:41:19;;;;;;;9.52;4.15;;;;;;;-1.78;69.34;91810.00;2047632;70;20629;-82
2024/01/16 01:43:45;;;;;;;6.60;3.70;;;;;;;-1.77;69.09;91816.25;2044178;70;20257;-79
2024/01/16 01:46:17;;;;;;;6.45;3.28;;;;;;;-1.67;68.88;91817.16;2047610;70;20608;-82
2024/01/16 01:48:45;;;;;;;8.73;3.33;;;;;;;-1.92;69.61;91819.75;2047767;70;20151;-81
2024/01/16 01:51:13;;;;;;;6.35;3.40;;;;;;;-2.18;70.51;91826.34;2047331;70;20147;-85
2024/01/16 01:53:41;;;;;;;7.85;3.60;;;;;;;-2.13;70.15;91825.44;2044875;70;20491;-85
2024/01/16 01:56:10;;;;;;;7.85;3.50;;;;;;;-1.88;69.34;91831.88;2048314;70;20143;-81
2024/01/16 01:58:39;;;;;;;7.18;3.30;;;;;;;-2.32;70.18;91836.81;2044490;70;20174;-82
2024/01/16 02:01:09;;;;;;;8.23;3.60;;;;;;;-2.01;69.78;91834.81;2046000;70;20178;-84
2024/01/16 02:03:43;;;;;;;7.60;3.60;;;;;;;-2.08;69.39;91833.50;2047438;70;20245;-76
2024/01/16 02:06:10;;;;;;;6.53;3.50;;;;;;;-2.41;70.79;91838.06;2047633;70;20241;-83
2024/01/16 02:08:36;;;;;;;6.38;3.47;;;;;;;-2.23;69.81;91849.31;2047256;70;20991;-79
2024/01/16 02:11:02;;;;;;;6.43;3.50;;;;;;;-2.22;69.88;91845.28;2047470;70;20238;-81
2024/01/16 02:13:28;;;;;;;6.05;3.20;;;;;;;-2.28;70.58;91848.22;2047670;70;20143;-80
2024/01/16 02:15:54;;;;;;;5.50;2.83;;;;;;;-2.15;70.60;91847.31;2047612;70;20150;-79
2024/01/16 02:18:20;;;;;;;4.50;2.60;;;;;;;-2.18;69.89;91849.13;2047266;70;20158;-77
2024/01/16 02:20:47;;;;;;;4.35;2.75;;;;;;;-2.14;70.23;91843.25;2047840;70;20277;-83
2024/01/16 02:23:14;;;;;;;6.15;2.72;;;;;;;-2.23;70.37;91827.25;2047862;70;20178;-77
2024/01/16 02:25:43;;;;;;;5.43;2.30;;;;;;;-2.08;70.07;91855.56;2047451;70;20603;-84
2024/01/16 02:28:09;;;;;;;6.90;2.90;;;;;;;-2.71;72.49;91857.25;2048003;70;20155;-88
2024/01/16 02:30:35;;;;;;;6.05;3.10;;;;;;;-2.59;71.27;91844.63;2047766;70;20512;-84
2024/01/16 02:33:01;;;;;;;4.63;2.70;;;;;;;-2.43;70.42;91842.66;2047967;70;20531;-81
2024/01/16 02:35:26;;;;;;;7.47;2.85;;;;;;;-2.45;69.91;91853.50;2047869;70;20165;-81
2024/01/16 02:37:52;;;;;;;6.20;2.78;;;;;;;-2.44;69.91;91849.44;2047467;70;20143;-81
2024/01/16 02:40:19;;;;;;;5.38;3.30;;;;;;;-3.07;71.58;91853.28;2048266;70;20167;-79
2024/01/16 02:42:44;;;;;;;5.07;2.97;;;;;;;-2.98;71.63;91857.50;2048036;70;20526;-77
2024/01/16 02:45:10;;;;;;;7.93;3.10;;;;;;;-2.77;71.46;91864.97;2047626;70;20138;-76
2024/01/16 02:47:36;;;;;;;4.55;2.72;;;;;;;-2.78;70.72;91861.47;2047892;70;20142;-79
2024/01/16 02:50:02;;;;;;;5.88;2.65;;;;;;;-2.67;70.46;91876.94;2048172;70;20595;-80
2024/01/16 02:52:28;;;;;;;5.97;2.50;;;;;;;-2.70;71.35;91878.00;2048340;70;20157;-77
2024/01/16 02:54:53;;;;;;;6.28;2.80;;;;;;;-3.04;71.76;91875.47;2047945;70;20154;-80
2024/01/16 02:57:19;;;;;;;5.75;2.63;;;;;;;-2.76;71.69;91880.19;2047691;70;20138;-87
2024/01/16 02:59:45;;;;;;;6.80;2.83;;;;;;;-2.68;71.17;91889.97;2048311;70;20193;-82
2024/01/16 03:02:11;;;;;;;3.97;2.65;;;;;;;-2.85;70.71;91881.44;2048368;70;20147;-85
2024/01/16 03:04:37;;;;;;;7.55;3.03;;;;;;;-3.09;71.19;91886.09;2045532;70;20147;-77
2024/01/16 03:07:03;;;;;;;6.40;2.97;;;;;;;-2.94;71.40;91890.22;2044003;70;20591;-77
2024/01/16 03:09:29;;;;;;;5.72;2.72;;;;;;;-2.98;70.84;91893.31;2045162;70;20171;-83
2024/01/16 03:11:55;;;;;;;4.78;3.00;;;;;;;-3.10;71.25;91897.66;2046441;70;20179;-78
2024/01/16 03:14:21;;;;;;;6.65;2.50;;;;;;;-2.92;70.85;91902.19;2048189;70;20628;-77
2024/01/16 03:16:46;;;;;;;6.63;2.72;;;;;;;-2.88;70.87;91894.31;2046652;70;20149;-84
2024/01/16 03:19:12;;;;;;;5.45;2.70;;;;;;;-2.88;70.17;91907.34;2045879;70;20222;-77
2024/01/16 03:21:41;;;;;;;4.53;2.55;;;;;;;-2.80;70.88;91894.31;2045720;70;20623;-79
2024/01/16 03:24:07;;;;;;;5.25;2.70;;;;;;;-3.26;71.21;91901.59;2045749;70;20147;-76
2024/01/16 03:26:33;;;;;;;7.18;3.08;;;;;;;-3.06;71.23;91903.56;2045773;70;20147;-77
2024/01/16 03:28:59;;;;;;;5.28;3.00;;;;;;;-3.09;71.22;91894.38;2045690;70;20147;-78
2024/01/16 03:31:24;;;;;;;5.85;2.90;;;;;;;-3.04;70.44;91890.00;2045655;70;20150;-78
2024/01/16 03:33:50;;;;;;;4.35;2.47;;;;;;;-3.08;70.47;91890.34;2045607;70;20238;-78
2024/01/16 03:36:17;;;;;;;4.28;2.35;;;;;;;-2.99;70.61;91891.13;2045628;70;20237;-89
2024/01/16 03:38:43;;;;;;;6.63;3.10;;;;;;;-3.57;71.31;91901.41;2046103;70;20214;-76
2024/01/16 03:41:10;;;;;;;6.15;2.95;;;;;;;-3.23;71.45;91889.53;2046099;70;20157;-76
2024/01/16 03:43:36;;;;;;;4.85;2.90;;;;;;;-3.19;71.38;91901.66;2045907;70;20146;-78
2024/01/16 03:46:02;;;;;;;8.13;3.10;;;;;;;-3.20;70.30;91904.97;2045759;70;20174;-75
2024/01/16 03:48:28;;;;;;;5.47;2.78;;;;;;;-3.10;70.95;91897.66;2046389;70;20210;-76
2024/01/16 03:50:54;;;;;;;4.78;2.65;;;;;;;-3.12;70.73;91903.69;2048918;70;20139;-81
2024/01/16 03:53:21;;;;;;;6.38;2.92;;;;;;;-3.10;71.23;91914.94;2047207;70;20253;-81
2024/01/16 03:55:47;;;;;;;4.60;2.60;;;;;;;-3.10;70.84;91911.44;2047582;70;20138;-79
2024/01/16 03:58:13;;;;;;;6.43;2.67;;;;;;;-3.11;70.99;91901.72;2049298;70;20179;-88
2024/01/16 04:00:38;;;;;;;7.30;3.33;;;;;;;-3.45;70.86;91910.84;2047721;70;20186;-86
2024/01/16 04:03:05;;;;;;;6.00;3.10;;;;;;;-3.55;72.02;91915.34;2046660;70;20135;-90
2024/01/16 04:05:31;;;;;;;5.85;4.38;;;;;;;-3.36;71.45;91901.38;2046164;70;20246;-93
2024/01/16 04:07:59;;;;;;;7.63;4.55;;;;;;;-3.41;70.34;91902.25;2045469;70;20169;-88
2024/01/16 04:10:25;;;;;;;5.28;3.25;;;;;;;-3.42;70.61;91907.00;2045687;70;20178;-90
2024/01/16 04:12:51;;;;;;;6.38;2.83;;;;;;;-3.45;70.74;91905.34;2045662;70;20155;-81
2024/01/16 04:15:17;;;;;;;6.65;3.20;;;;;;;-3.46;70.42;91903.13;2045029;70;20147;-82
2024/01/16 04:17:42;;;;;;;6.45;3.50;;;;;;;-3.63;71.30;91906.31;2046018;70;20148;-80
2024/01/16 04:20:09;;;;;;;6.03;3.58;;;;;;;-3.97;72.46;91903.66;2045594;70;20151;-79
2024/01/16 04:22:35;;;;;;;7.30;3.58;;;;;;;-3.71;72.17;91905.50;2045577;70;20155;-83
2024/01/16 04:25:01;;;;;;;4.47;3.10;;;;;;;-3.63;72.56;91900.78;2045708;70;20178;-76
2024/01/16 04:27:27;;;;;;;6.97;3.33;;;;;;;-3.50;71.78;91914.47;2045361;70;20158;-76
2024/01/16 04:29:53;;;;;;;5.82;3.10;;;;;;;-4.09;72.78;91908.66;2041885;70;20149;-77
2024/01/16 04:32:19;;;;;;;9.07;3.70;;;;;;;-4.08;73.92;91912.88;2045095;70;20151;-77
2024/01/16 04:34:44;;;;;;;5.63;3.30;;;;;;;-3.76;73.48;91920.88;2042203;70;20142;-81
2024/01/16 04:37:10;;;;;;;8.45;4.55;;;;;;;-3.62;72.67;91919.53;2044720;70;20273;-93
2024/01/16 04:39:36;;;;;;;13.13;4.55;;;;;;;-3.58;71.88;91925.41;2045253;70;20185;-93
2024/01/16 04:42:02;;;;;;;8.48;3.97;;;;;;;-3.59;71.88;91914.97;2045048;70;20178;-92
2024/01/16 04:44:28;;;;;;;9.32;3.92;;;;;;;-3.58;71.63;91914.41;2045007;70;20202;-78
2024/01/16 04:46:54;;;;;;;6.95;4.15;;;;;;;-3.57;71.45;91909.66;2045095;70;20147;-76
2024/01/16 04:49:19;;;;;;;8.25;4.57;;;;;;;-3.57;71.01;91912.41;2045259;70;20191;-77
2024/01/16 04:51:45;;;;;;;6.72;3.85;;;;;;;-3.59;71.52;91909.44;2045812;70;20182;-76
2024/01/16 04:54:12;;;;;;;7.45;3.70;;;;;;;-3.76;71.19;91917.38;2046140;70;20177;-78
2024/01/16 04:56:38;;;;;;;7.07;3.47;;;;;;;-3.83;70.89;91905.78;2047061;70;20166;-81
2024/01/16 04:59:03;;;;;;;8.38;3.65;;;;;;;-3.83;71.35;91902.31;2048663;70;20227;-75
2024/01/16 05:01:29;;;;;;;8.43;4.22;;;;;;;-4.19;71.91;91908.38;2046016;70;20162;-80
2024/01/16 05:03:54;;;;;;;9.25;4.40;;;;;;;-3.91;71.74;91926.97;2044901;70;20631;-83
2024/01/16 05:06:21;;;;;;;9.75;4.65;;;;;;;-3.88;71.05;91920.41;2044940;70;20249;-79
2024/01/16 05:08:47;;;;;;;8.32;3.85;;;;;;;-4.10;71.23;91909.94;2044973;70;20155;-83
2024/01/16 05:11:16;;;;;;;56.05;20.05;;;;;;;-4.04;72.67;91923.53;2047267;70;20619;-84
2024/01/16 05:13:42;;;;;;;52.80;20.80;;;;;;;-3.90;72.25;91931.19;2044354;70;20682;-84
2024/01/16 05:16:07;;;;;;;39.88;16.45;;;;;;;-3.89;71.33;91918.22;2044875;70;20159;-75
2024/01/16 05:18:33;;;;;;;26.83;12.35;;;;;;;-4.02;71.84;91921.03;2044866;70;20146;-76
2024/01/16 05:20:59;;;;;;;27.73;12.98;;;;;;;-3.92;71.88;91924.78;2045025;70;20548;-75
2024/01/16 05:23:25;;;;;;;25.73;10.40;;;;;;;-3.94;72.36;91919.81;2044370;70;20150;-77
2024/01/16 05:25:50;;;;;;;35.05;14.45;;;;;;;-4.29;72.27;91906.66;2044778;70;20488;-79
2024/01/16 05:28:16;;;;;;;38.90;15.52;;;;;;;-4.10;71.59;91907.94;2044659;70;20182;-77
2024/01/16 05:30:44;;;;;;;47.63;16.50;;;;;;;-4.19;71.44;91922.13;2044152;70;20685;-80
2024/01/16 05:33:09;;;;;;;35.35;15.52;;;;;;;-4.29;71.62;91918.38;2044857;70;20151;-77
2024/01/16 05:35:35;;;;;;;37.58;15.52;;;;;;;-4.20;71.33;91919.94;2044960;70;20159;-80
2024/01/16 05:38:00;;;;;;;33.15;14.68;;;;;;;-4.12;71.42;91923.50;2044872;70;20523;-82
2024/01/16 05:40:26;;;;;;;29.02;12.68;;;;;;;-4.10;71.38;91924.41;2044968;70;20131;-77
2024/01/16 05:42:52;;;;;;;32.05;13.75;;;;;;;-4.11;71.23;91933.22;2044855;70;20558;-87
2024/01/16 05:45:18;;;;;;;39.63;17.17;;;;;;;-4.27;72.00;91935.06;2044547;70;20158;-87
2024/01/16 05:47:44;;;;;;;39.22;16.65;;;;;;;-4.15;71.55;91941.06;2045026;70;20127;-76
2024/01/16 05:50:10;;;;;;;35.90;14.95;;;;;;;-4.17;71.66;91935.34;2045154;70;20151;-76
2024/01/16 05:52:36;;;;;;;29.25;12.35;;;;;;;-4.09;71.34;91927.91;2045755;70;20193;-76
2024/01/16 05:55:03;;;;;;;40.13;16.15;;;;;;;-4.25;71.05;91921.53;2045819;70;20162;-76
2024/01/16 05:57:33;;;;;;;35.17;14.48;;;;;;;-4.13;71.33;91935.75;2045072;70;20158;-76
2024/01/16 06:00:02;;;;;;;34.70;15.00;;;;;;;-4.34;71.71;91938.47;2045287;70;20131;-76
2024/01/16 06:02:31;;;;;;;29.98;13.48;;;;;;;-4.14;71.27;91946.00;2045569;70;20147;-76
2024/01/16 06:04:56;;;;;;;35.15;14.90;;;;;;;-4.10;71.82;91949.16;2044473;70;20147;-76
2024/01/16 06:07:22;;;;;;;36.60;15.27;;;;;;;-4.12;71.18;91943.47;2044986;70;20515;-76
2024/01/16 06:09:47;;;;;;;34.88;15.35;;;;;;;-4.54;72.10;91950.88;2047199;70;20253;-79
2024/01/16 06:12:13;;;;;;;39.67;17.85;;;;;;;-4.44;72.07;91940.94;2044937;70;20151;-87
2024/01/16 06:14:39;;;;;;;37.38;16.88;;;;;;;-4.36;72.07;91941.72;2044355;70;20157;-78
2024/01/16 06:17:05;;;;;;;39.50;16.38;;;;;;;-4.27;71.07;91937.06;2045265;70;20563;-83
2024/01/16 06:19:34;;;;;;;38.67;17.23;;;;;;;-4.17;71.55;91941.59;2045256;70;20162;-85
2024/01/16 06:22:00;;;;;;;44.25;20.05;;;;;;;-4.10;71.05;91937.44;2045484;70;20151;-76
2024/01/16 06:24:26;;;;;;;38.60;17.83;;;;;;;-4.19;71.40;91943.38;2045606;70;20635;-75
2024/01/16 06:26:52;;;;;;;45.38;22.02;;;;;;;-4.15;71.22;91941.78;2046914;70;20147;-88
2024/01/16 06:29:17;;;;;;;61.28;29.23;;;;;;;-4.09;71.74;91936.88;2045292;70;20151;-76
2024/01/16 06:31:43;;;;;;;61.97;29.75;;;;;;;-4.08;71.15;91926.63;2047009;70;20580;-77
2024/01/16 06:34:08;;;;;;;66.35;30.15;;;;;;;-3.95;71.60;91939.59;2045813;70;20262;-77
2024/01/16 06:36:34;;;;;;;70.53;31.38;;;;;;;-4.32;71.25;91938.66;2045526;70;20523;-76
2024/01/16 06:39:00;;;;;;;90.65;37.85;;;;;;;-4.21;72.17;91941.19;2045470;70;20151;-75
2024/01/16 06:41:25;;;;;;;98.38;43.00;;;;;;;-4.12;72.88;91934.50;2045084;70;20181;-75
2024/01/16 06:43:51;;;;;;;107.07;41.17;;;;;;;-4.07;71.88;91932.88;2044550;70;20230;-76
2024/01/16 06:46:17;;;;;;;67.13;31.00;;;;;;;-3.85;71.62;91940.59;2045477;70;20190;-76
2024/01/16 06:48:42;;;;;;;71.28;32.30;;;;;;;-3.64;71.00;91951.59;2045455;70;20151;-75
2024/01/16 06:51:10;;;;;;;70.13;30.00;;;;;;;-3.70;70.89;91956.50;2045550;70;20147;-79
2024/01/16 06:53:36;;;;;;;70.28;29.63;;;;;;;-3.57;70.67;91956.44;2045198;70;20707;-76
2024/01/16 06:56:03;;;;;;;74.35;30.70;;;;;;;-3.78;71.02;91937.19;2045203;70;20151;-76
2024/01/16 06:58:28;;;;;;;64.47;25.92;;;;;;;-3.63;70.90;91958.56;2045034;70;20226;-76
2024/01/16 07:00:54;;;;;;;61.60;25.33;;;;;;;-3.67;70.58;91966.41;2041806;70;20155;-74
2024/01/16 07:03:19;;;;;;;57.72;24.05;;;;;;;-3.59;70.64;91967.97;2045303;70;20139;-77
2024/01/16 07:05:45;;;;;;;55.75;23.75;;;;;;;-3.51;70.61;91964.56;2045140;70;20159;-77
2024/01/16 07:08:11;;;;;;;75.65;30.27;;;;;;;-3.55;71.00;91961.41;2044592;70;20132;-84
2024/01/16 07:10:36;;;;;;;65.13;28.80;;;;;;;-3.49;70.96;91975.75;2044519;70;20155;-85
2024/01/16 07:13:02;;;;;;;57.88;25.40;;;;;;;-3.39;71.12;91976.75;2045033;70;20162;-80
2024/01/16 07:15:28;;;;;;;70.00;28.63;;;;;;;-3.42;71.32;91977.84;2044835;70;20552;-81
2024/01/16 07:17:54;;;;;;;67.80;27.77;;;;;;;-3.31;71.23;91991.31;2044905;70;20322;-81
2024/01/16 07:20:20;;;;;;;69.65;29.08;;;;;;;-3.20;70.31;91993.06;2044944;70;20515;-81
2024/01/16 07:22:46;;;;;;;79.75;35.58;;;;;;;-3.05;69.68;91989.66;2044601;70;20534;-87
2024/01/16 07:25:11;;;;;;;62.33;27.60;;;;;;;-3.23;70.54;91974.84;2045011;70;20159;-81
2024/01/16 07:27:37;;;;;;;68.25;29.77;;;;;;;-3.09;70.97;91990.75;2044965;70;20143;-79
2024/01/16 07:30:06;;;;;;;61.88;26.63;;;;;;;-3.03;70.69;92001.59;2044922;70;20150;-78
2024/01/16 07:32:32;;;;;;;68.57;28.70;;;;;;;-2.97;70.81;92002.22;2044519;70;20159;-79
2024/01/16 07:34:57;;;;;;;75.22;30.17;;;;;;;-2.88;69.85;91998.97;2045032;70;20245;-79
2024/01/16 07:37:23;;;;;;;73.47;31.65;;;;;;;-2.88;70.24;92001.00;2045072;70;20143;-80
2024/01/16 07:39:49;;;;;;;79.45;33.70;;;;;;;-2.85;70.32;92003.38;2045235;70;20162;-82
2024/01/16 07:42:16;;;;;;;95.18;37.97;;;;;;;-2.84;70.50;92018.66;2044827;70;20139;-78
2024/01/16 07:44:41;;;;;;;76.28;32.45;;;;;;;-2.84;70.11;92009.63;2044857;70;20155;-83
2024/01/16 07:47:07;;;;;;;69.95;31.00;;;;;;;-2.79;70.46;92019.03;2044912;70;20147;-84
2024/01/16 07:49:34;;;;;;;72.32;30.23;;;;;;;-2.76;71.08;92013.19;2044799;70;20158;-85
2024/01/16 07:51:59;;;;;;;64.25;29.90;;;;;;;-2.68;71.08;92010.47;2044497;70;20551;-82
2024/01/16 07:54:25;;;;;;;73.93;29.00;;;;;;;-2.61;70.01;92018.06;2045745;70;20254;-84
2024/01/16 07:56:52;;;;;;;70.25;29.75;;;;;;;-2.49;70.55;92018.47;2045172;70;20147;-90
2024/01/16 07:59:17;;;;;;;59.13;26.00;;;;;;;-2.47;70.57;92010.41;2046636;70;20139;-78
2024/01/16 08:01:43;;;;;;;65.03;28.65;;;;;;;-2.55;70.77;92015.88;2046713;70;20158;-78
2024/01/16 08:04:09;;;;;;;67.50;30.67;;;;;;;-2.39;70.00;92017.41;2046489;70;20151;-78
2024/01/16 08:06:35;;;;;;;73.45;33.42;;;;;;;-2.51;70.33;92010.75;2045137;70;20147;-79
2024/01/16 08:09:01;;;;;;;53.35;24.30;;;;;;;-2.37;70.24;92011.38;2045071;70;20143;-79
2024/01/16 08:11:29;;;;;;;50.08;23.42;;;;;;;-2.28;70.74;92007.38;2045197;70;20595;-81
2024/01/16 08:13:54;;;;;;;54.85;26.10;;;;;;;-2.14;70.49;92011.47;2045986;70;20151;-77
2024/01/16 08:16:21;;;;;;;54.25;24.42;;;;;;;-2.12;70.41;92008.91;2046472;70;20683;-77
2024/01/16 08:18:47;;;;;;;43.38;22.65;;;;;;;-1.95;69.58;92008.41;2045194;70;20222;-81
2024/01/16 08:21:13;;;;;;;48.55;21.05;;;;;;;-2.06;69.81;92004.72;2044789;70;20592;-81
2024/01/16 08:23:39;;;;;;;47.22;19.70;;;;;;;-1.91;70.07;92008.81;2045480;70;20155;-81
2024/01/16 08:26:04;;;;;;;49.53;22.30;;;;;;;-1.85;70.10;92004.59;2044504;70;20166;-79
2024/01/16 08:28:30;;;;;;;44.55;19.58;;;;;;;-1.88;70.39;92013.22;2044795;70;20139;-78
2024/01/16 08:30:56;;;;;;;26.33;12.65;;;;;;;-2.07;70.79;91999.72;2044326;70;20178;-78
2024/01/16 08:33:21;;;;;;;24.80;12.65;;;;;;;-2.08;70.16;92004.50;2045002;70;20159;-77
2024/01/16 08:35:47;;;;;;;28.27;12.82;;;;;;;-1.71;69.18;91998.91;2044957;70;20549;-77
2024/01/16 08:38:13;;;;;;;36.45;16.17;;;;;;;-1.51;68.93;92005.56;2045121;70;20184;-79
2024/01/16 08:40:39;;;;;;;27.70;13.82;;;;;;;-1.51;69.73;92005.56;2044261;70;20150;-77
2024/01/16 08:43:05;;;;;;;19.92;10.90;;;;;;;-1.66;69.15;92003.53;2044840;70;20151;-77
2024/01/16 08:45:30;;;;;;;23.38;11.70;;;;;;;-1.48;69.19;92001.72;2044735;70;20234;-77
2024/01/16 08:47:56;;;;;;;21.38;11.50;;;;;;;-1.67;68.69;92008.31;2044954;70;20143;-78
2024/01/16 08:50:22;;;;;;;24.50;11.52;;;;;;;-1.47;69.46;92005.94;2044391;70;20516;-78
2024/01/16 08:52:48;;;;;;;24.65;10.88;;;;;;;-1.02;69.45;92013.53;2045233;70;20146;-81
2024/01/16 08:55:14;;;;;;;28.63;11.73;;;;;;;-0.48;69.11;92003.16;2044844;70;20189;-82
2024/01/16 08:57:40;;;;;;;22.58;11.07;;;;;;;-0.41;66.20;92012.72;2044406;70;20202;-79
2024/01/16 09:00:08;;;;;;;20.77;10.88;;;;;;;-0.31;66.56;91992.25;2044792;70;20151;-79
2024/01/16 09:02:35;;;;;;;20.58;10.45;;;;;;;-0.06;66.37;91997.13;2044910;70;20150;-78
2024/01/16 09:05:01;;;;;;;20.83;10.05;;;;;;;-0.05;66.05;92001.38;2044920;70;20238;-76
2024/01/16 09:07:26;;;;;;;24.27;12.70;;;;;;;-0.16;65.14;91999.75;2044942;70;20171;-76
2024/01/16 09:09:53;;;;;;;23.77;11.93;;;;;;;0.28;64.39;91990.38;2045212;70;20166;-80
2024/01/16 09:12:18;;;;;;;27.65;12.52;;;;;;;0.36;64.02;91993.81;2044598;70;20627;-77
2024/01/16 09:14:44;;;;;;;23.00;11.35;;;;;;;0.41;63.78;91987.31;2044989;70;20136;-76
2024/01/16 09:17:09;;;;;;;20.85;10.98;;;;;;;0.47;64.31;91996.16;2045148;70;20592;-78
2024/01/16 09:19:36;;;;;;;22.55;11.45;;;;;;;1.03;63.34;91991.16;2045711;70;20145;-76
2024/01/16 09:22:02;;;;;;;21.20;10.68;;;;;;;0.52;63.22;91992.44;2051072;70;20221;-79
2024/01/16 09:24:28;;;;;;;21.50;10.40;;;;;;;0.84;62.70;91997.22;2051016;70;20131;-78
2024/01/16 09:26:54;;;;;;;23.15;11.00;;;;;;;1.02;63.07;91984.88;2051518;70;20138;-78
2024/01/16 09:29:21;;;;;;;18.63;10.68;;;;;;;0.58;63.51;91989.44;2051289;70;20158;-80
2024/01/16 09:31:47;;;;;;;19.10;9.73;;;;;;;1.41;62.17;91993.59;2051367;70;20682;-77
2024/01/16 09:34:13;;;;;;;20.33;10.23;;;;;;;1.12;60.89;91984.97;2051361;70;20142;-76
2024/01/16 09:36:39;;;;;;;23.10;10.65;;;;;;;1.48;61.44;91986.53;2050910;70;20297;-79
2024/01/16 09:39:10;;;;;;;20.70;9.88;;;;;;;1.55;61.31;91982.19;2051394;70;20229;-80
2024/01/16 09:41:37;;;;;;;21.98;11.23;;;;;;;1.76;60.68;91982.53;2051276;70;20157;-79
2024/01/16 09:44:04;;;;;;;25.38;11.70;;;;;;;1.59;60.43;91968.66;2050624;70;20154;-78
2024/01/16 09:46:31;;;;;;;21.17;11.52;;;;;;;1.75;60.12;91981.06;2051313;70;20158;-79
2024/01/16 09:48:59;;;;;;;19.40;11.43;;;;;;;1.49;59.73;91977.63;2051162;70;20150;-78
2024/01/16 09:51:25;;;;;;;21.27;10.82;;;;;;;0.73;60.88;91970.69;2051264;70;20134;-79
2024/01/16 09:53:52;;;;;;;18.52;10.13;;;;;;;1.23;61.99;91975.47;2051305;70;20590;-78
2024/01/16 09:56:25;;;;;;;15.55;9.45;;;;;;;1.51;60.26;91972.25;2051280;70;20149;-81
2024/01/16 09:58:58;;;;;;;18.65;10.60;;;;;;;1.69;60.48;91961.88;2048011;70;20149;-78
2024/01/16 10:01:27;;;;;;;18.67;10.43;;;;;;;1.90;59.59;91963.50;2051396;70;20156;-80
2024/01/16 10:03:53;;;;;;;18.63;10.15;;;;;;;1.65;59.92;91952.50;2051217;70;20153;-77
2024/01/16 10:06:20;;;;;;;19.63;10.35;;;;;;;1.16;60.31;91954.09;2051160;70;20130;-79
2024/01/16 10:08:46;;;;;;;18.50;9.85;;;;;;;1.34;60.49;91961.13;2051218;70;20130;-79
2024/01/16 10:11:15;;;;;;;22.33;11.52;;;;;;;1.32;60.63;91963.00;2051267;70;20253;-79
2024/01/16 10:13:41;;;;;;;18.42;10.48;;;;;;;1.55;60.60;91957.97;2050623;70;20234;-80
2024/01/16 10:16:07;;;;;;;16.75;10.15;;;;;;;1.78;61.09;91950.13;2050546;70;20181;-79
2024/01/16 10:18:37;;;;;;;16.42;10.00;;;;;;;1.74;60.77;91954.59;2051397;70;20590;-79
2024/01/16 10:21:04;;;;;;;17.13;10.05;;;;;;;2.30;60.40;91954.88;2048054;70;20262;-81
2024/01/16 10:23:32;;;;;;;22.20;12.73;;;;;;;2.38;59.29;91944.38;2050960;70;20143;-80
2024/01/16 10:26:08;;;;;;;20.23;11.65;;;;;;;2.87;58.43;91952.97;2051242;70;20146;-78
2024/01/16 10:28:35;;;;;;;38.58;18.83;;;;;;;3.73;58.00;91949.66;2051132;70;20146;-79
2024/01/16 10:31:05;;;;;;;16.40;9.65;;;;;;;4.01;56.58;91948.22;2051242;70;20126;-81
2024/01/16 10:33:31;;;;;;;12.77;8.38;;;;;;;4.47;55.21;91940.97;2051182;70;20142;-80
2024/01/16 10:36:19;;;;;;;13.30;8.77;;;;;;;3.89;55.54;91933.41;2050351;70;20142;-81
2024/01/16 10:38:46;;;;;;;13.05;7.68;;;;;;;4.35;54.67;91921.34;2051211;70;20146;-78
2024/01/16 10:41:16;;;;;;;13.23;8.68;;;;;;;5.53;52.94;91937.75;2050666;70;20134;-81
2024/01/16 10:43:46;;;;;;;12.48;8.38;;;;;;;6.01;52.74;91913.66;2051046;70;20246;-80
2024/01/16 10:46:17;;;;;;;13.80;9.02;;;;;;;6.09;51.65;91906.53;2050615;70;20246;-80
2024/01/16 10:49:04;;;;;;;14.25;8.43;;;;;;;6.87;49.53;91914.13;2050609;70;20146;-80
2024/01/16 10:51:32;;;;;;;12.82;8.15;;;;;;;7.43;49.16;91907.72;2051107;70;20138;-80
2024/01/16 10:54:00;;;;;;;11.30;7.55;;;;;;;7.87;48.31;91928.47;2051088;70;20151;-78
2024/01/16 10:56:29;;;;;;;10.07;7.40;;;;;;;7.12;46.46;91917.09;2050506;70;20266;-79
2024/01/16 10:59:05;;;;;;;11.20;7.30;;;;;;;7.78;48.09;91912.53;2051119;70;20154;-80
2024/01/16 11:01:32;;;;;;;8.63;6.28;;;;;;;9.85;44.75;91919.53;2051340;70;20147;-79
2024/01/16 11:04:00;;;;;;;10.98;6.82;;;;;;;11.12;41.85;91921.50;2051522;70;20245;-79
2024/01/16 11:06:27;;;;;;;10.57;6.75;;;;;;;11.10;42.08;91915.06;2051043;70;20166;-80
2024/01/16 11:08:54;;;;;;;9.70;6.22;;;;;;;11.98;40.62;91905.59;2051601;70;20174;-79
2024/01/16 11:11:21;;;;;;;9.57;6.00;;;;;;;12.39;40.17;91905.19;2051177;70;20151;-80
2024/01/16 11:13:48;;;;;;;8.93;6.25;;;;;;;12.49;39.96;91902.06;2050817;70;20186;-80
2024/01/16 11:16:14;;;;;;;8.80;6.40;;;;;;;15.06;37.30;91919.88;2051018;70;20284;-80
2024/01/16 11:18:40;;;;;;;12.00;7.00;;;;;;;15.30;35.63;91911.41;2051440;70;20162;-82
2024/01/16 11:21:14;;;;;;;11.40;7.57;;;;;;;14.98;35.99;91906.19;2051019;70;20151;-80
2024/01/16 11:23:39;;;;;;;11.45;7.82;;;;;;;15.77;35.01;91909.28;2051750;70;20157;-80